Time;durP1;ratioP1;P1;durP2;ratioP2;P2;SDS_P1;SDS_P2;PMS_P1;PMS_P2;Temp;Humidity;BMP_temperature;BMP_pressure;BME280_temperature;BME280_humidity;BME280_pressure;Samples;Min_cycle;Max_cycle;Signal;HPM_P1;HPM_P2
2023/06/13 00:01:48;;;;;;;5.22;3.60;;;;;;;;;;5067909;28;25059;-69
2023/06/13 00:04:21;;;;;;;12.27;4.53;;;;;;;;;;5057949;28;25071;-69
2023/06/13 00:06:46;;;;;;;11.90;4.30;;;;;;;;;;5080442;28;25102;-71
2023/06/13 00:09:12;;;;;;;5.90;3.85;;;;;;;;;;5079700;28;25078;-70
2023/06/13 00:11:38;;;;;;;8.43;4.15;;;;;;;;;;5090470;28;25085;-71
2023/06/13 00:14:04;;;;;;;6.13;4.20;;;;;;;;;;5081854;28;25080;-70
2023/06/13 00:16:31;;;;;;;8.20;4.28;;;;;;;;;;5066848;28;25059;-71
2023/06/13 00:18:58;;;;;;;6.10;4.18;;;;;;;;;;5086068;28;25076;-70
2023/06/13 00:21:24;;;;;;;6.10;3.65;;;;;;;;;;5086449;28;25089;-71
2023/06/13 00:23:50;;;;;;;4.47;3.53;;;;;;;;;;5081824;28;25063;-71
2023/06/13 00:26:16;;;;;;;5.38;4.10;;;;;;;;;;5073606;28;25054;-71
2023/06/13 00:28:42;;;;;;;7.18;4.68;;;;;;;;;;5073765;28;25112;-71
2023/06/13 00:31:08;;;;;;;5.88;3.88;;;;;;;;;;5082273;28;25077;-71
2023/06/13 00:33:34;;;;;;;4.93;4.10;;;;;;;;;;5064805;28;25076;-71
2023/06/13 00:36:00;;;;;;;5.75;4.38;;;;;;;;;;5066840;28;25061;-71
2023/06/13 00:38:28;;;;;;;6.40;3.85;;;;;;;;;;5077359;28;25072;-70
2023/06/13 00:40:54;;;;;;;7.88;4.32;;;;;;;;;;5070813;28;25067;-71
2023/06/13 00:43:20;;;;;;;6.50;3.65;;;;;;;;;;5058199;28;25065;-71
2023/06/13 00:45:46;;;;;;;5.80;4.40;;;;;;;;;;5068691;28;25065;-70
2023/06/13 00:48:13;;;;;;;7.18;4.35;;;;;;;;;;5061239;28;25060;-71
2023/06/13 00:50:45;;;;;;;8.75;4.10;;;;;;;;;;5066007;28;25155;-70
2023/06/13 00:53:16;;;;;;;8.77;4.15;;;;;;;;;;5080012;28;25094;-69
2023/06/13 00:55:42;;;;;;;4.68;4.10;;;;;;;;;;5073058;28;25078;-70
2023/06/13 00:58:10;;;;;;;5.43;4.32;;;;;;;;;;5071649;28;25064;-71
2023/06/13 01:00:37;;;;;;;8.95;4.75;;;;;;;;;;5051866;28;25113;-71
2023/06/13 01:03:07;;;;;;;6.50;4.68;;;;;;;;;;5066247;28;25071;-70
2023/06/13 01:05:33;;;;;;;5.22;4.00;;;;;;;;;;5078232;28;25071;-71
2023/06/13 01:08:01;;;;;;;13.18;4.30;;;;;;;;;;5070208;28;25071;-70
2023/06/13 01:10:28;;;;;;;4.82;3.80;;;;;;;;;;5067545;28;25102;-71
2023/06/13 01:13:00;;;;;;;5.35;3.70;;;;;;;;;;5065732;28;25077;-73
2023/06/13 01:15:28;;;;;;;7.18;4.28;;;;;;;;;;5071429;28;25055;-71
2023/06/13 01:17:57;;;;;;;9.38;4.28;;;;;;;;;;5070902;28;25070;-71
2023/06/13 01:20:26;;;;;;;6.10;4.13;;;;;;;;;;5069614;28;25105;-73
2023/06/13 01:23:08;;;;;;;11.07;3.88;;;;;;;;;;5065715;28;25058;-71
2023/06/13 01:25:47;;;;;;;7.90;3.95;;;;;;;;;;5069322;28;25066;-73
2023/06/13 01:28:14;;;;;;;5.97;4.10;;;;;;;;;;5066451;28;25061;-71
2023/06/13 01:30:41;;;;;;;6.38;4.20;;;;;;;;;;5072590;28;25145;-72
2023/06/13 01:33:08;;;;;;;6.40;3.58;;;;;;;;;;5069394;28;25147;-72
2023/06/13 01:35:36;;;;;;;8.55;4.07;;;;;;;;;;5073716;28;25109;-72
2023/06/13 01:38:04;;;;;;;7.82;4.32;;;;;;;;;;5067686;28;25091;-72
2023/06/13 01:40:31;;;;;;;5.82;4.22;;;;;;;;;;5071107;28;25092;-70
2023/06/13 01:42:57;;;;;;;6.03;4.13;;;;;;;;;;5064819;28;25068;-71
2023/06/13 01:45:23;;;;;;;4.63;3.83;;;;;;;;;;5072871;28;25101;-72
2023/06/13 01:47:56;;;;;;;8.63;4.22;;;;;;;;;;5051941;28;25091;-69
2023/06/13 01:50:28;;;;;;;5.90;4.18;;;;;;;;;;5049939;28;25073;-72
2023/06/13 01:52:54;;;;;;;;;;;;;;;;;;5064697;28;28095;-70
2023/06/13 01:55:22;;;;;;;4.28;3.88;;;;;;;;;;5066298;28;25122;-69
2023/06/13 01:57:56;;;;;;;5.82;4.10;;;;;;;;;;5069641;28;25082;-70
2023/06/13 02:00:22;;;;;;;6.00;4.32;;;;;;;;;;5065805;28;25095;-71
2023/06/13 02:02:48;;;;;;;6.90;3.80;;;;;;;;;;5069101;28;25081;-71
2023/06/13 02:05:14;;;;;;;8.45;4.15;;;;;;;;;;5070382;28;25090;-72
2023/06/13 02:07:42;;;;;;;6.53;4.15;;;;;;;;;;5067036;28;25081;-71
2023/06/13 02:10:08;;;;;;;8.70;3.92;;;;;;;;;;5071253;28;25080;-71
2023/06/13 02:12:34;;;;;;;6.93;3.95;;;;;;;;;;5069921;28;25061;-72
2023/06/13 02:15:02;;;;;;;9.25;4.20;;;;;;;;;;5071538;28;25061;-71
2023/06/13 02:17:28;;;;;;;6.90;3.53;;;;;;;;;;5069379;28;25078;-70
2023/06/13 02:19:54;;;;;;;8.57;3.88;;;;;;;;;;5067028;28;25081;-73
2023/06/13 02:22:20;;;;;;;7.68;3.97;;;;;;;;;;5069744;28;25110;-72
2023/06/13 02:24:47;;;;;;;6.90;3.88;;;;;;;;;;5069046;28;25057;-71
2023/06/13 02:27:13;;;;;;;5.13;3.83;;;;;;;;;;5064370;28;25072;-70
2023/06/13 02:29:39;;;;;;;5.45;3.88;;;;;;;;;;5054230;28;25086;-71
2023/06/13 02:32:05;;;;;;;16.95;3.90;;;;;;;;;;5070892;28;25098;-70
2023/06/13 02:34:31;;;;;;;7.25;4.57;;;;;;;;;;5061756;28;25107;-70
2023/06/13 02:36:57;;;;;;;6.05;3.70;;;;;;;;;;5067299;28;25095;-70
2023/06/13 02:39:23;;;;;;;6.63;3.72;;;;;;;;;;5066050;28;25116;-72
2023/06/13 02:41:49;;;;;;;8.43;3.88;;;;;;;;;;5068647;28;25085;-71
2023/06/13 02:44:15;;;;;;;5.30;3.88;;;;;;;;;;5069421;28;25094;-72
2023/06/13 02:46:41;;;;;;;6.70;3.97;;;;;;;;;;5067809;28;25072;-71
2023/06/13 02:49:07;;;;;;;5.68;4.63;;;;;;;;;;5067985;28;25062;-70
2023/06/13 02:51:33;;;;;;;5.80;4.32;;;;;;;;;;5059980;28;25060;-71
2023/06/13 02:53:59;;;;;;;6.22;4.25;;;;;;;;;;5069305;28;25075;-70
2023/06/13 02:56:26;;;;;;;6.20;4.10;;;;;;;;;;5068566;28;25063;-69
2023/06/13 02:58:53;;;;;;;6.50;4.13;;;;;;;;;;5071119;28;25079;-71
2023/06/13 03:01:19;;;;;;;5.70;4.13;;;;;;;;;;5065062;28;25131;-69
2023/06/13 03:03:47;;;;;;;6.65;3.65;;;;;;;;;;5067084;28;25058;-71
2023/06/13 03:06:17;;;;;;;6.65;4.00;;;;;;;;;;5040115;28;25055;-70
2023/06/13 03:08:43;;;;;;;10.48;4.15;;;;;;;;;;5064926;28;25060;-72
2023/06/13 03:11:09;;;;;;;8.95;4.60;;;;;;;;;;5064685;28;25071;-69
2023/06/13 03:13:35;;;;;;;10.85;4.38;;;;;;;;;;5047664;28;25059;-70
2023/06/13 03:16:03;;;;;;;4.97;3.65;;;;;;;;;;5070544;28;25112;-71
2023/06/13 03:18:29;;;;;;;6.15;4.28;;;;;;;;;;5059822;28;25087;-71
2023/06/13 03:20:55;;;;;;;8.60;3.75;;;;;;;;;;5067627;28;25152;-71
2023/06/13 03:23:21;;;;;;;6.85;4.25;;;;;;;;;;5063792;28;25094;-73
2023/06/13 03:25:47;;;;;;;6.43;3.72;;;;;;;;;;5069542;28;25152;-72
2023/06/13 03:28:13;;;;;;;7.25;3.88;;;;;;;;;;5063112;28;25118;-71
2023/06/13 03:30:39;;;;;;;6.30;3.95;;;;;;;;;;5058186;28;25065;-71
2023/06/13 03:33:05;;;;;;;6.80;4.38;;;;;;;;;;5064518;28;25047;-72
2023/06/13 03:35:31;;;;;;;10.35;5.10;;;;;;;;;;5071955;28;25069;-70
2023/06/13 03:37:57;;;;;;;7.57;4.55;;;;;;;;;;5079461;28;25057;-70
2023/06/13 03:40:23;;;;;;;7.47;4.78;;;;;;;;;;5083796;28;25065;-70
2023/06/13 03:42:50;;;;;;;9.68;4.97;;;;;;;;;;5084945;28;25104;-71
2023/06/13 03:45:17;;;;;;;10.10;3.90;;;;;;;;;;5078775;28;25086;-71
2023/06/13 03:47:44;;;;;;;7.55;4.30;;;;;;;;;;5073223;28;25042;-70
2023/06/13 03:50:10;;;;;;;7.63;4.20;;;;;;;;;;5071754;28;25092;-71
2023/06/13 03:52:36;;;;;;;7.38;4.70;;;;;;;;;;5071030;28;25057;-68
2023/06/13 03:55:02;;;;;;;11.15;5.38;;;;;;;;;;5090255;28;25070;-71
2023/06/13 03:57:31;;;;;;;7.57;4.25;;;;;;;;;;5079839;28;25071;-69
2023/06/13 03:59:57;;;;;;;5.50;4.10;;;;;;;;;;5080852;28;25097;-70
2023/06/13 04:02:23;;;;;;;9.27;3.88;;;;;;;;;;5075413;28;25066;-70
2023/06/13 04:04:52;;;;;;;17.20;4.35;;;;;;;;;;5078717;28;25078;-71
2023/06/13 04:07:21;;;;;;;8.80;4.22;;;;;;;;;;5079196;28;25095;-70
2023/06/13 04:09:47;;;;;;;9.55;5.00;;;;;;;;;;5076481;28;25101;-71
2023/06/13 04:12:13;;;;;;;11.10;4.53;;;;;;;;;;5081291;28;25076;-69
2023/06/13 04:14:39;;;;;;;8.32;4.50;;;;;;;;;;5083445;28;25076;-69
2023/06/13 04:17:06;;;;;;;5.80;4.22;;;;;;;;;;5082675;28;25065;-69
2023/06/13 04:19:32;;;;;;;7.88;4.25;;;;;;;;;;5083852;28;25094;-69
2023/06/13 04:21:59;;;;;;;7.28;4.28;;;;;;;;;;5078107;28;25073;-69
2023/06/13 04:24:25;;;;;;;9.95;4.75;;;;;;;;;;5088746;28;25080;-71
2023/06/13 04:26:51;;;;;;;11.60;4.40;;;;;;;;;;5091942;28;25070;-72
2023/06/13 04:29:18;;;;;;;8.85;5.32;;;;;;;;;;5085395;28;25096;-71
2023/06/13 04:31:45;;;;;;;11.88;4.25;;;;;;;;;;5075404;28;25070;-72
2023/06/13 04:34:11;;;;;;;12.27;4.50;;;;;;;;;;5085104;28;25097;-71
2023/06/13 04:36:41;;;;;;;9.95;4.43;;;;;;;;;;5085155;28;25046;-73
2023/06/13 04:39:07;;;;;;;6.65;4.40;;;;;;;;;;5075960;28;25082;-70
2023/06/13 04:41:34;;;;;;;10.07;4.40;;;;;;;;;;5091453;28;25049;-71
2023/06/13 04:44:03;;;;;;;7.97;4.50;;;;;;;;;;5088584;28;25072;-71
2023/06/13 04:46:29;;;;;;;8.15;5.07;;;;;;;;;;5090625;28;25058;-71
2023/06/13 04:48:57;;;;;;;9.00;4.78;;;;;;;;;;5072698;28;25079;-71
2023/06/13 04:51:23;;;;;;;10.30;4.80;;;;;;;;;;5095818;28;25072;-72
2023/06/13 04:53:49;;;;;;;6.85;4.00;;;;;;;;;;5085673;28;25118;-70
2023/06/13 04:56:15;;;;;;;9.38;4.80;;;;;;;;;;5079412;28;25073;-73
2023/06/13 04:58:41;;;;;;;8.23;5.03;;;;;;;;;;5077178;28;25029;-71
2023/06/13 05:01:07;;;;;;;14.95;5.30;;;;;;;;;;5083599;28;25100;-73
2023/06/13 05:03:34;;;;;;;10.15;5.15;;;;;;;;;;5073829;28;25081;-71
2023/06/13 05:06:00;;;;;;;14.80;5.43;;;;;;;;;;5075336;28;25142;-71
2023/06/13 05:08:28;;;;;;;7.85;5.22;;;;;;;;;;5068958;28;25078;-75
2023/06/13 05:10:54;;;;;;;9.80;5.07;;;;;;;;;;5067649;28;25091;-73
2023/06/13 05:13:20;;;;;;;6.88;4.72;;;;;;;;;;5066105;28;25167;-72
2023/06/13 05:15:46;;;;;;;12.15;5.68;;;;;;;;;;5072159;28;25151;-74
2023/06/13 05:18:14;;;;;;;9.50;5.10;;;;;;;;;;5074107;28;25137;-73
2023/06/13 05:20:41;;;;;;;7.35;4.85;;;;;;;;;;5074793;28;25067;-74
2023/06/13 05:23:08;;;;;;;8.43;4.82;;;;;;;;;;5065805;28;25072;-72
2023/06/13 05:25:35;;;;;;;10.50;5.57;;;;;;;;;;5071097;28;25100;-74
2023/06/13 05:28:02;;;;;;;9.95;5.18;;;;;;;;;;5073269;28;25070;-73
2023/06/13 05:30:28;;;;;;;9.05;4.75;;;;;;;;;;5067544;28;25085;-74
2023/06/13 05:32:54;;;;;;;8.48;4.97;;;;;;;;;;5064851;28;25109;-75
2023/06/13 05:35:20;;;;;;;11.88;5.13;;;;;;;;;;5067411;28;25140;-73
2023/06/13 05:37:46;;;;;;;9.30;4.70;;;;;;;;;;5063953;28;25111;-73
2023/06/13 05:40:12;;;;;;;9.38;4.95;;;;;;;;;;5063505;28;25086;-75
2023/06/13 05:42:39;;;;;;;9.80;5.32;;;;;;;;;;5065759;28;25101;-72
2023/06/13 05:45:06;;;;;;;11.48;4.93;;;;;;;;;;5070785;28;25067;-74
2023/06/13 05:47:32;;;;;;;12.95;5.28;;;;;;;;;;5071271;28;25142;-76
2023/06/13 05:49:58;;;;;;;9.07;5.05;;;;;;;;;;5073956;28;25061;-73
2023/06/13 05:52:25;;;;;;;6.90;5.07;;;;;;;;;;5060377;28;25020;-71
2023/06/13 05:54:50;;;;;;;7.93;5.68;;;;;;;;;;5065661;28;25067;-71
2023/06/13 05:57:17;;;;;;;11.60;5.88;;;;;;;;;;5067272;28;25059;-73
2023/06/13 05:59:43;;;;;;;6.72;4.85;;;;;;;;;;5063475;28;25050;-73
2023/06/13 06:02:12;;;;;;;11.98;4.93;;;;;;;;;;5063040;28;25136;-72
2023/06/13 06:04:38;;;;;;;7.88;4.57;;;;;;;;;;5061019;28;25124;-74
2023/06/13 06:07:05;;;;;;;10.05;5.00;;;;;;;;;;5056745;28;25147;-72
2023/06/13 06:09:31;;;;;;;11.30;6.18;;;;;;;;;;5063154;28;25087;-73
2023/06/13 06:11:57;;;;;;;8.70;4.45;;;;;;;;;;5049505;28;25059;-71
2023/06/13 06:14:23;;;;;;;9.13;5.07;;;;;;;;;;5068104;28;25068;-72
2023/06/13 06:16:52;;;;;;;5.47;4.50;;;;;;;;;;5060890;28;25146;-72
2023/06/13 06:19:18;;;;;;;11.40;4.60;;;;;;;;;;5043029;28;25113;-73
2023/06/13 06:21:44;;;;;;;6.93;4.50;;;;;;;;;;5049437;28;25147;-73
2023/06/13 06:24:10;;;;;;;6.30;4.72;;;;;;;;;;5063996;28;25068;-73
2023/06/13 06:26:36;;;;;;;14.25;5.25;;;;;;;;;;5063797;28;25093;-73
2023/06/13 06:29:02;;;;;;;8.65;4.10;;;;;;;;;;5062247;28;25078;-71
2023/06/13 06:31:29;;;;;;;10.20;4.60;;;;;;;;;;5057585;28;25088;-74
2023/06/13 06:33:54;;;;;;;6.30;4.40;;;;;;;;;;5061615;28;25145;-73
2023/06/13 06:36:24;;;;;;;7.38;4.55;;;;;;;;;;5064940;28;25080;-72
2023/06/13 06:38:50;;;;;;;6.95;4.38;;;;;;;;;;5061319;28;25074;-71
2023/06/13 06:41:16;;;;;;;10.13;4.38;;;;;;;;;;5062104;28;25076;-73
2023/06/13 06:43:42;;;;;;;6.68;4.20;;;;;;;;;;5073360;28;25130;-73
2023/06/13 06:46:09;;;;;;;6.90;4.05;;;;;;;;;;5073175;28;25083;-74
2023/06/13 06:48:35;;;;;;;6.45;4.30;;;;;;;;;;5060420;28;25096;-72
2023/06/13 06:51:01;;;;;;;9.52;3.97;;;;;;;;;;5073107;28;25070;-70
2023/06/13 06:53:26;;;;;;;7.38;3.78;;;;;;;;;;5058577;28;25060;-72
2023/06/13 06:55:52;;;;;;;7.30;3.80;;;;;;;;;;5067479;28;25100;-72
2023/06/13 06:58:18;;;;;;;8.45;4.18;;;;;;;;;;5062800;28;25152;-71
2023/06/13 07:00:44;;;;;;;6.72;3.70;;;;;;;;;;5073558;28;25067;-76
2023/06/13 07:03:10;;;;;;;8.40;3.80;;;;;;;;;;5062482;28;25057;-74
2023/06/13 07:05:36;;;;;;;8.85;4.22;;;;;;;;;;5073635;28;25075;-73
2023/06/13 07:08:02;;;;;;;9.43;4.55;;;;;;;;;;5067569;28;25068;-72
2023/06/13 07:10:28;;;;;;;4.90;3.47;;;;;;;;;;5055895;28;25056;-74
2023/06/13 07:12:54;;;;;;;6.55;4.25;;;;;;;;;;5064517;28;25041;-75
2023/06/13 07:15:22;;;;;;;5.97;4.10;;;;;;;;;;5064983;28;25052;-74
2023/06/13 07:17:48;;;;;;;5.88;4.10;;;;;;;;;;5058066;28;25069;-74
2023/06/13 07:20:14;;;;;;;4.72;3.78;;;;;;;;;;5060726;28;25081;-73
2023/06/13 07:22:40;;;;;;;5.55;4.03;;;;;;;;;;5062457;28;25077;-75
2023/06/13 07:25:07;;;;;;;10.40;4.18;;;;;;;;;;5059900;28;25097;-73
2023/06/13 07:27:33;;;;;;;6.78;4.35;;;;;;;;;;5063611;28;25136;-73
2023/06/13 07:29:59;;;;;;;6.13;3.65;;;;;;;;;;5063158;28;25078;-74
2023/06/13 07:32:26;;;;;;;7.03;3.42;;;;;;;;;;5057134;28;25186;-72
2023/06/13 07:34:52;;;;;;;5.25;4.25;;;;;;;;;;5053439;28;25124;-72
2023/06/13 07:37:19;;;;;;;4.88;3.50;;;;;;;;;;5061835;28;25063;-74
2023/06/13 07:39:45;;;;;;;8.57;3.88;;;;;;;;;;5063382;28;25056;-78
2023/06/13 07:42:11;;;;;;;10.55;3.85;;;;;;;;;;5063661;28;25063;-74
2023/06/13 07:44:37;;;;;;;13.23;3.63;;;;;;;;;;5069414;28;25061;-76
2023/06/13 07:47:03;;;;;;;7.85;4.18;;;;;;;;;;5073710;28;25124;-74
2023/06/13 07:49:30;;;;;;;7.65;4.25;;;;;;;;;;5065127;28;25116;-72
2023/06/13 07:51:56;;;;;;;5.68;3.58;;;;;;;;;;5064429;28;25058;-73
2023/06/13 07:54:22;;;;;;;6.10;3.60;;;;;;;;;;5062409;28;25054;-73
2023/06/13 07:56:50;;;;;;;6.47;3.47;;;;;;;;;;5055961;28;25139;-75
2023/06/13 07:59:16;;;;;;;8.45;3.53;;;;;;;;;;5065718;28;25036;-73
2023/06/13 08:01:42;;;;;;;10.55;3.67;;;;;;;;;;5059771;28;25150;-75
2023/06/13 08:04:08;;;;;;;8.15;3.60;;;;;;;;;;5060730;28;25084;-74
2023/06/13 08:06:34;;;;;;;9.77;3.53;;;;;;;;;;5062909;28;25075;-75
2023/06/13 08:09:00;;;;;;;7.25;3.00;;;;;;;;;;5056981;28;25064;-75
2023/06/13 08:11:26;;;;;;;6.82;3.60;;;;;;;;;;5064018;28;25080;-76
2023/06/13 08:13:52;;;;;;;7.47;3.83;;;;;;;;;;5061636;28;25091;-74
2023/06/13 08:16:18;;;;;;;5.57;3.28;;;;;;;;;;5046316;28;25143;-76
2023/06/13 08:18:44;;;;;;;9.88;3.97;;;;;;;;;;5060123;28;25071;-72
2023/06/13 08:21:10;;;;;;;6.57;3.50;;;;;;;;;;5065008;28;25059;-77
2023/06/13 08:23:36;;;;;;;6.88;3.58;;;;;;;;;;5062972;28;25077;-72
2023/06/13 08:26:02;;;;;;;7.25;3.60;;;;;;;;;;5058801;28;25120;-73
2023/06/13 08:28:29;;;;;;;8.50;4.40;;;;;;;;;;5053402;28;25059;-74
2023/06/13 08:30:55;;;;;;;8.18;3.83;;;;;;;;;;5060339;28;25046;-73
2023/06/13 08:33:21;;;;;;;5.95;3.55;;;;;;;;;;5060356;28;25067;-74
2023/06/13 08:35:47;;;;;;;7.28;3.60;;;;;;;;;;5055803;28;25065;-74
2023/06/13 08:38:13;;;;;;;5.82;3.70;;;;;;;;;;5056587;28;25070;-73
2023/06/13 08:40:39;;;;;;;4.82;3.40;;;;;;;;;;5062231;28;25053;-73
2023/06/13 08:43:05;;;;;;;7.18;3.67;;;;;;;;;;5063680;28;25117;-75
2023/06/13 08:45:31;;;;;;;5.07;3.25;;;;;;;;;;5073428;28;25067;-76
2023/06/13 08:47:57;;;;;;;8.70;4.03;;;;;;;;;;5061644;28;25113;-75
2023/06/13 08:50:26;;;;;;;10.38;3.80;;;;;;;;;;5061621;28;25240;-74
2023/06/13 08:52:54;;;;;;;6.85;3.53;;;;;;;;;;5060420;28;25072;-74
2023/06/13 08:55:22;;;;;;;11.13;3.30;;;;;;;;;;5059731;28;25072;-76
2023/06/13 08:57:52;;;;;;;5.20;3.65;;;;;;;;;;5058845;28;25098;-72
2023/06/13 09:00:19;;;;;;;6.18;3.92;;;;;;;;;;5049502;28;25065;-75
2023/06/13 09:02:45;;;;;;;5.35;3.60;;;;;;;;;;5068111;28;25085;-73
2023/06/13 09:05:15;;;;;;;6.78;3.97;;;;;;;;;;5073010;28;25159;-74
2023/06/13 09:07:41;;;;;;;8.57;3.55;;;;;;;;;;5065287;28;25063;-75
2023/06/13 09:10:11;;;;;;;9.82;3.50;;;;;;;;;;5064754;28;25162;-72
2023/06/13 09:12:39;;;;;;;7.22;3.17;;;;;;;;;;5044754;28;25172;-74
2023/06/13 09:15:05;;;;;;;8.60;3.75;;;;;;;;;;5066793;28;25070;-73
2023/06/13 09:17:31;;;;;;;8.57;3.40;;;;;;;;;;5068249;28;25069;-74
2023/06/13 09:19:57;;;;;;;8.20;4.82;;;;;;;;;;5074110;28;25080;-72
2023/06/13 09:22:24;;;;;;;9.20;3.80;;;;;;;;;;5073291;28;25071;-75
2023/06/13 09:24:50;;;;;;;7.05;3.95;;;;;;;;;;5073235;28;25077;-73
2023/06/13 09:27:16;;;;;;;7.75;3.80;;;;;;;;;;5064214;28;25051;-72
2023/06/13 09:29:42;;;;;;;5.97;3.47;;;;;;;;;;5075030;28;25081;-76
2023/06/13 09:32:10;;;;;;;6.70;3.67;;;;;;;;;;5072530;28;25101;-76
2023/06/13 09:34:38;;;;;;;7.45;3.80;;;;;;;;;;5072342;28;25137;-72
2023/06/13 09:37:07;;;;;;;5.35;3.67;;;;;;;;;;5073014;28;25084;-72
2023/06/13 09:39:33;;;;;;;7.60;4.07;;;;;;;;;;5071904;28;25072;-75
2023/06/13 09:42:01;;;;;;;9.00;4.20;;;;;;;;;;5069824;28;25116;-75
2023/06/13 09:44:32;;;;;;;6.97;4.20;;;;;;;;;;5070411;28;25129;-74
2023/06/13 09:46:58;;;;;;;12.02;3.97;;;;;;;;;;5071476;28;25073;-73
2023/06/13 09:49:29;;;;;;;6.53;4.03;;;;;;;;;;5062255;28;25075;-73
2023/06/13 09:51:54;;;;;;;7.28;3.75;;;;;;;;;;5061957;28;25101;-73
2023/06/13 09:54:21;;;;;;;6.15;3.20;;;;;;;;;;5071773;28;25076;-73
2023/06/13 09:56:47;;;;;;;4.85;3.58;;;;;;;;;;5067065;28;25091;-73
2023/06/13 09:59:19;;;;;;;9.73;3.58;;;;;;;;;;5047675;28;25145;-74
2023/06/13 10:01:47;;;;;;;8.35;4.97;;;;;;;;;;5048963;28;25049;-76
2023/06/13 10:04:13;;;;;;;4.95;3.90;;;;;;;;;;5058476;28;25055;-73
2023/06/13 10:06:39;;;;;;;6.15;3.83;;;;;;;;;;5070081;28;25057;-74
2023/06/13 10:09:05;;;;;;;14.35;4.22;;;;;;;;;;5065758;28;25052;-72
2023/06/13 10:11:34;;;;;;;8.20;4.18;;;;;;;;;;5068445;28;25082;-74
2023/06/13 10:14:04;;;;;;;12.63;4.22;;;;;;;;;;5067044;28;25100;-73
2023/06/13 10:16:31;;;;;;;7.10;4.10;;;;;;;;;;5064135;28;25114;-74
2023/06/13 10:18:58;;;;;;;5.90;4.15;;;;;;;;;;5062609;28;25056;-75
2023/06/13 10:21:25;;;;;;;5.30;3.45;;;;;;;;;;5056670;28;25070;-73
2023/06/13 10:23:51;;;;;;;8.05;3.50;;;;;;;;;;5065899;28;25062;-73
2023/06/13 10:26:36;;;;;;;7.43;4.30;;;;;;;;;;5054088;28;25092;-73
2023/06/13 10:29:32;;;;;;;8.15;3.63;;;;;;;;;;5070715;28;25057;-74
2023/06/13 10:31:57;;;;;;;8.82;4.03;;;;;;;;;;5058402;28;25082;-72
2023/06/13 10:34:30;;;;;;;4.93;3.67;;;;;;;;;;5062500;28;25089;-72
2023/06/13 10:37:03;;;;;;;6.90;3.97;;;;;;;;;;5074606;28;25065;-72
2023/06/13 10:39:29;;;;;;;9.02;4.57;;;;;;;;;;5064436;28;25180;-73
2023/06/13 10:42:00;;;;;;;9.55;3.90;;;;;;;;;;5065978;28;25094;-73
2023/06/13 10:44:45;;;;;;;7.20;4.20;;;;;;;;;;5033000;28;25105;-74
2023/06/13 10:47:11;;;;;;;5.00;3.95;;;;;;;;;;5049780;28;25065;-75
2023/06/13 10:49:38;;;;;;;6.05;3.38;;;;;;;;;;5064436;28;25080;-73
2023/06/13 10:52:04;;;;;;;4.43;3.60;;;;;;;;;;5061121;28;25078;-73
2023/06/13 10:54:31;;;;;;;7.00;3.83;;;;;;;;;;5059194;28;25060;-73
2023/06/13 10:57:00;;;;;;;7.53;4.40;;;;;;;;;;5058425;28;25142;-73
2023/06/13 10:59:30;;;;;;;7.93;4.25;;;;;;;;;;5060185;28;25064;-72
2023/06/13 11:01:56;;;;;;;8.85;3.97;;;;;;;;;;5071530;28;25063;-72
2023/06/13 11:04:22;;;;;;;8.90;4.25;;;;;;;;;;5062196;28;25054;-75
2023/06/13 11:06:51;;;;;;;13.75;3.70;;;;;;;;;;5084264;28;25066;-72
2023/06/13 11:09:21;;;;;;;6.60;4.60;;;;;;;;;;5077398;28;25125;-75
2023/06/13 11:11:50;;;;;;;4.57;3.75;;;;;;;;;;5084697;28;25060;-73
2023/06/13 11:14:20;;;;;;;11.88;4.55;;;;;;;;;;5071430;28;25089;-73
2023/06/13 11:16:46;;;;;;;6.82;3.80;;;;;;;;;;5081566;28;25139;-72
2023/06/13 11:19:13;;;;;;;9.43;3.92;;;;;;;;;;5082548;28;25149;-74
2023/06/13 11:21:46;;;;;;;10.05;4.53;;;;;;;;;;5068982;28;25081;-75
2023/06/13 11:24:14;;;;;;;10.27;4.50;;;;;;;;;;5059325;28;25068;-74
2023/06/13 11:26:41;;;;;;;5.05;3.90;;;;;;;;;;5065951;28;25067;-76
2023/06/13 11:29:07;;;;;;;8.65;3.78;;;;;;;;;;5063459;28;25129;-72
2023/06/13 11:31:34;;;;;;;6.30;3.72;;;;;;;;;;5059906;28;25152;-74
2023/06/13 11:34:01;;;;;;;8.00;3.88;;;;;;;;;;5063979;28;25052;-73
2023/06/13 11:36:27;;;;;;;5.43;3.75;;;;;;;;;;5063025;28;25122;-73
2023/06/13 11:38:58;;;;;;;5.13;3.88;;;;;;;;;;5061821;28;25077;-74
2023/06/13 11:41:24;;;;;;;8.70;3.93;;;;;;;;;;5078603;28;25074;-73
2023/06/13 11:43:50;;;;;;;6.35;4.35;;;;;;;;;;5043755;28;25448;-72
2023/06/13 11:46:16;;;;;;;6.93;3.58;;;;;;;;;;5066340;28;25057;-74
2023/06/13 11:48:44;;;;;;;9.23;4.35;;;;;;;;;;5054490;28;25083;-74
2023/06/13 11:51:10;;;;;;;6.00;4.00;;;;;;;;;;5064709;28;25073;-73
2023/06/13 11:53:48;;;;;;;12.48;4.13;;;;;;;;;;5050392;28;25074;-73
2023/06/13 11:56:15;;;;;;;5.10;3.92;;;;;;;;;;5057485;28;25052;-74
2023/06/13 11:58:41;;;;;;;5.97;3.40;;;;;;;;;;5043410;28;25096;-74
2023/06/13 12:01:07;;;;;;;6.38;3.70;;;;;;;;;;5060362;28;25098;-73
2023/06/13 12:03:38;;;;;;;9.45;4.20;;;;;;;;;;5063222;28;25149;-73
2023/06/13 12:06:06;;;;;;;6.13;3.75;;;;;;;;;;5068632;28;25100;-71
2023/06/13 12:08:35;;;;;;;9.25;3.80;;;;;;;;;;5062127;28;25117;-75
2023/06/13 12:11:05;;;;;;;4.60;3.42;;;;;;;;;;5058210;28;25144;-73
2023/06/13 12:13:33;;;;;;;6.13;3.55;;;;;;;;;;5050026;28;25162;-74
2023/06/13 12:15:59;;;;;;;7.50;3.72;;;;;;;;;;5060860;28;25081;-76
2023/06/13 12:18:25;;;;;;;7.07;3.85;;;;;;;;;;5064328;28;25088;-72
2023/06/13 12:20:53;;;;;;;5.55;3.60;;;;;;;;;;5059903;28;25106;-75
2023/06/13 12:23:20;;;;;;;5.05;3.55;;;;;;;;;;5051311;28;25099;-75
2023/06/13 12:25:49;;;;;;;5.65;3.60;;;;;;;;;;5037613;28;25103;-75
2023/06/13 12:28:15;;;;;;;7.45;3.20;;;;;;;;;;5059223;28;25065;-74
2023/06/13 12:30:45;;;;;;;6.43;3.90;;;;;;;;;;5057983;28;25138;-77
2023/06/13 12:33:18;;;;;;;4.80;3.83;;;;;;;;;;5063038;28;25086;-74
2023/06/13 12:35:55;;;;;;;6.63;3.40;;;;;;;;;;5057237;28;25100;-74
2023/06/13 12:38:26;;;;;;;4.57;3.50;;;;;;;;;;5064932;28;25146;-74
2023/06/13 12:40:52;;;;;;;6.72;3.92;;;;;;;;;;5061778;28;25100;-74
2023/06/13 12:43:29;;;;;;;5.03;3.70;;;;;;;;;;5063090;28;25113;-74
2023/06/13 12:45:59;;;;;;;15.02;4.07;;;;;;;;;;5072363;28;25149;-72
2023/06/13 12:48:26;;;;;;;4.18;3.22;;;;;;;;;;5076204;28;25049;-74
2023/06/13 12:50:54;;;;;;;5.72;3.70;;;;;;;;;;5080813;28;25137;-74
2023/06/13 12:53:20;;;;;;;5.82;3.92;;;;;;;;;;5066444;28;25079;-72
2023/06/13 12:55:50;;;;;;;6.75;3.58;;;;;;;;;;5070464;28;25093;-73
2023/06/13 12:58:32;;;;;;;6.50;4.40;;;;;;;;;;5047838;28;25048;-72
2023/06/13 13:01:03;;;;;;;4.53;3.63;;;;;;;;;;5057019;28;25156;-73
2023/06/13 13:03:30;;;;;;;7.05;3.88;;;;;;;;;;5067766;28;25068;-72
2023/06/13 13:05:56;;;;;;;5.30;3.42;;;;;;;;;;5080329;28;25050;-73
2023/06/13 13:08:22;;;;;;;6.90;3.78;;;;;;;;;;5068803;28;25061;-73
2023/06/13 13:10:49;;;;;;;5.07;3.45;;;;;;;;;;5070583;28;25071;-72
2023/06/13 13:13:15;;;;;;;5.22;3.33;;;;;;;;;;5072609;28;25068;-71
2023/06/13 13:15:41;;;;;;;4.68;3.67;;;;;;;;;;5067534;28;25083;-75
2023/06/13 13:18:07;;;;;;;5.55;4.13;;;;;;;;;;5061271;28;25067;-72
2023/06/13 13:20:34;;;;;;;8.45;3.67;;;;;;;;;;5076016;28;25077;-73
2023/06/13 13:23:03;;;;;;;5.75;3.40;;;;;;;;;;5065931;28;25131;-77
2023/06/13 13:25:29;;;;;;;10.13;3.38;;;;;;;;;;5053902;28;25094;-72
2023/06/13 13:27:55;;;;;;;2.95;2.70;;;;;;;;;;5065272;28;25115;-74
2023/06/13 13:30:21;;;;;;;6.10;4.00;;;;;;;;;;5061800;28;25090;-74
2023/06/13 13:32:50;;;;;;;4.28;3.25;;;;;;;;;;5060916;28;25072;-73
2023/06/13 13:35:16;;;;;;;6.78;3.53;;;;;;;;;;5070705;28;25066;-75
2023/06/13 13:37:42;;;;;;;4.13;3.25;;;;;;;;;;5065801;28;25181;-74
2023/06/13 13:40:08;;;;;;;8.27;3.22;;;;;;;;;;5059882;28;25101;-73
2023/06/13 13:42:36;;;;;;;4.30;3.22;;;;;;;;;;5050805;28;25056;-73
2023/06/13 13:45:06;;;;;;;4.93;3.75;;;;;;;;;;5059888;28;25105;-72
2023/06/13 13:47:32;;;;;;;3.78;3.20;;;;;;;;;;5054627;28;25064;-73
2023/06/13 13:49:58;;;;;;;12.98;3.88;;;;;;;;;;5050436;28;25059;-73
2023/06/13 13:52:25;;;;;;;5.15;3.88;;;;;;;;;;5057880;28;25052;-71
2023/06/13 13:54:51;;;;;;;5.15;3.90;;;;;;;;;;5080807;28;25052;-73
2023/06/13 13:57:18;;;;;;;7.22;3.47;;;;;;;;;;5069039;28;25062;-73
2023/06/13 13:59:46;;;;;;;9.75;3.47;;;;;;;;;;5074436;28;25072;-74
2023/06/13 14:02:12;;;;;;;9.00;3.88;;;;;;;;;;5069749;28;25170;-74
2023/06/13 14:04:38;;;;;;;5.80;4.03;;;;;;;;;;5067493;28;25106;-73
2023/06/13 14:07:04;;;;;;;27.10;4.65;;;;;;;;;;5065368;28;25060;-72
2023/06/13 14:09:30;;;;;;;6.60;3.60;;;;;;;;;;5059646;28;25159;-73
2023/06/13 14:11:57;;;;;;;7.72;4.22;;;;;;;;;;5067238;28;25084;-73
2023/06/13 14:14:26;;;;;;;4.25;3.55;;;;;;;;;;5065423;28;25060;-74
2023/06/13 14:16:53;;;;;;;4.25;3.58;;;;;;;;;;5066420;28;25157;-73
2023/06/13 14:19:19;;;;;;;8.90;4.35;;;;;;;;;;5046515;28;25099;-72
2023/06/13 14:21:45;;;;;;;12.82;3.92;;;;;;;;;;5067076;28;25050;-73
2023/06/13 14:24:11;;;;;;;4.85;3.92;;;;;;;;;;5067694;28;25160;-72
2023/06/13 14:26:37;;;;;;;6.78;4.25;;;;;;;;;;5045611;28;25109;-74
2023/06/13 14:29:03;;;;;;;6.60;4.38;;;;;;;;;;5065267;28;25077;-73
2023/06/13 14:31:29;;;;;;;6.57;4.43;;;;;;;;;;5063335;28;25063;-73
2023/06/13 14:33:56;;;;;;;4.75;4.13;;;;;;;;;;5068021;28;25147;-72
2023/06/13 14:36:22;;;;;;;5.43;4.18;;;;;;;;;;5063389;28;25125;-72
2023/06/13 14:38:48;;;;;;;7.63;3.72;;;;;;;;;;5063410;28;25131;-73
2023/06/13 14:41:14;;;;;;;5.57;4.22;;;;;;;;;;5046098;28;25070;-74